sensor_id;sensor_type;location;lat;lon;timestamp;pressure;altitude;pressure_sealevel;temperature;humidity
37824;BME280;23667;43.246;26.576;2022-10-16T00:00:13;100311.09;;;5.69;100.00
37824;BME280;23667;43.246;26.576;2022-10-16T00:02:39;100312.81;;;5.65;100.00
37824;BME280;23667;43.246;26.576;2022-10-16T00:05:04;100317.97;;;5.59;100.00
37824;BME280;23667;43.246;26.576;2022-10-16T00:07:30;100315.25;;;5.38;100.00
37824;BME280;23667;43.246;26.576;2022-10-16T00:09:55;100306.66;;;5.33;100.00
37824;BME280;23667;43.246;26.576;2022-10-16T00:12:20;100317.00;;;5.33;100.00
37824;BME280;23667;43.246;26.576;2022-10-16T00:14:45;100319.56;;;5.33;100.00
37824;BME280;23667;43.246;26.576;2022-10-16T00:17:11;100319.56;;;5.34;100.00
37824;BME280;23667;43.246;26.576;2022-10-16T00:19:36;100316.94;;;5.23;100.00
37824;BME280;23667;43.246;26.576;2022-10-16T00:22:01;100320.38;;;5.21;100.00
37824;BME280;23667;43.246;26.576;2022-10-16T00:24:27;100329.03;;;5.32;100.00
37824;BME280;23667;43.246;26.576;2022-10-16T00:26:53;100329.00;;;5.26;100.00
37824;BME280;23667;43.246;26.576;2022-10-16T00:29:18;100330.72;;;5.21;100.00
37824;BME280;23667;43.246;26.576;2022-10-16T00:31:43;100330.72;;;5.18;100.00
37824;BME280;23667;43.246;26.576;2022-10-16T00:34:09;100321.16;;;5.06;100.00
37824;BME280;23667;43.246;26.576;2022-10-16T00:36:34;100334.06;;;5.03;100.00
37824;BME280;23667;43.246;26.576;2022-10-16T00:39:00;100329.00;;;5.21;100.00
37824;BME280;23667;43.246;26.576;2022-10-16T00:41:26;100329.06;;;5.40;100.00
37824;BME280;23667;43.246;26.576;2022-10-16T00:43:53;100333.38;;;5.41;100.00
37824;BME280;23667;43.246;26.576;2022-10-16T00:48:52;100338.50;;;5.29;100.00
37824;BME280;23667;43.246;26.576;2022-10-16T00:51:21;100335.94;;;5.27;100.00
37824;BME280;23667;43.246;26.576;2022-10-16T00:53:48;100344.50;;;5.23;100.00
37824;BME280;23667;43.246;26.576;2022-10-16T00:56:14;100346.19;;;5.12;100.00
37824;BME280;23667;43.246;26.576;2022-10-16T00:58:39;100337.59;;;5.20;100.00
37824;BME280;23667;43.246;26.576;2022-10-16T01:01:05;100335.88;;;5.18;100.00
37824;BME280;23667;43.246;26.576;2022-10-16T01:03:31;100341.91;;;5.23;100.00
37824;BME280;23667;43.246;26.576;2022-10-16T01:08:48;100354.63;;;4.86;100.00
37824;BME280;23667;43.246;26.576;2022-10-16T01:11:22;100350.34;;;4.88;100.00
37824;BME280;23667;43.246;26.576;2022-10-16T01:13:50;100352.06;;;4.91;100.00
37824;BME280;23667;43.246;26.576;2022-10-16T01:16:22;100355.66;;;5.13;100.00
37824;BME280;23667;43.246;26.576;2022-10-16T01:18:54;100354.81;;;5.12;100.00
37824;BME280;23667;43.246;26.576;2022-10-16T01:21:23;100352.97;;;4.97;100.00
37824;BME280;23667;43.246;26.576;2022-10-16T01:28:57;100360.66;;;4.85;100.00
37824;BME280;23667;43.246;26.576;2022-10-16T01:31:27;100359.03;;;5.01;100.00
37824;BME280;23667;43.246;26.576;2022-10-16T01:33:59;100360.75;;;4.97;100.00
37824;BME280;23667;43.246;26.576;2022-10-16T01:36:26;100364.19;;;4.99;100.00
37824;BME280;23667;43.246;26.576;2022-10-16T01:38:54;100350.28;;;4.82;100.00
37824;BME280;23667;43.246;26.576;2022-10-16T01:41:22;100357.13;;;4.78;100.00
37824;BME280;23667;43.246;26.576;2022-10-16T01:43:53;100362.25;;;4.68;100.00
37824;BME280;23667;43.246;26.576;2022-10-16T01:46:22;100363.09;;;4.67;100.00
37824;BME280;23667;43.246;26.576;2022-10-16T01:48:48;100360.44;;;4.61;100.00
37824;BME280;23667;43.246;26.576;2022-10-16T01:51:13;100359.66;;;4.69;100.00
37824;BME280;23667;43.246;26.576;2022-10-16T01:53:39;100370.03;;;4.74;100.00
37824;BME280;23667;43.246;26.576;2022-10-16T01:56:09;100363.00;;;4.56;100.00
37824;BME280;23667;43.246;26.576;2022-10-16T01:58:37;100369.97;;;4.65;100.00
37824;BME280;23667;43.246;26.576;2022-10-16T02:01:05;100365.69;;;4.70;100.00
37824;BME280;23667;43.246;26.576;2022-10-16T02:03:31;100360.47;;;4.64;100.00
37824;BME280;23667;43.246;26.576;2022-10-16T02:05:57;100369.13;;;4.66;100.00
37824;BME280;23667;43.246;26.576;2022-10-16T02:08:24;100369.81;;;4.49;100.00
37824;BME280;23667;43.246;26.576;2022-10-16T02:10:51;100372.47;;;4.57;100.00
37824;BME280;23667;43.246;26.576;2022-10-16T02:13:17;100366.31;;;4.43;100.00
37824;BME280;23667;43.246;26.576;2022-10-16T02:15:45;100369.78;;;4.42;100.00
37824;BME280;23667;43.246;26.576;2022-10-16T02:18:10;100365.59;;;4.56;100.00
37824;BME280;23667;43.246;26.576;2022-10-16T02:20:38;100373.25;;;4.48;100.00
37824;BME280;23667;43.246;26.576;2022-10-16T02:23:05;100370.75;;;4.53;100.00
37824;BME280;23667;43.246;26.576;2022-10-16T02:25:37;100372.41;;;4.48;100.00
37824;BME280;23667;43.246;26.576;2022-10-16T02:30:34;100366.22;;;4.30;100.00
37824;BME280;23667;43.246;26.576;2022-10-16T02:33:02;100372.28;;;4.34;100.00
37824;BME280;23667;43.246;26.576;2022-10-16T02:35:29;100378.41;;;4.44;100.00
37824;BME280;23667;43.246;26.576;2022-10-16T02:37:56;100380.03;;;4.37;100.00
37824;BME280;23667;43.246;26.576;2022-10-16T02:40:22;100386.09;;;4.41;100.00
37824;BME280;23667;43.246;26.576;2022-10-16T02:42:50;100386.03;;;4.33;100.00
37824;BME280;23667;43.246;26.576;2022-10-16T02:45:15;100384.28;;;4.30;100.00
37824;BME280;23667;43.246;26.576;2022-10-16T02:47:41;100386.88;;;4.29;100.00
37824;BME280;23667;43.246;26.576;2022-10-16T02:50:07;100389.47;;;4.33;100.00
37824;BME280;23667;43.246;26.576;2022-10-16T02:52:32;100390.31;;;4.29;100.00
37824;BME280;23667;43.246;26.576;2022-10-16T02:54:57;100392.94;;;4.34;100.00
37824;BME280;23667;43.246;26.576;2022-10-16T02:57:23;100390.41;;;4.40;100.00
37824;BME280;23667;43.246;26.576;2022-10-16T02:59:48;100398.81;;;4.18;100.00
37824;BME280;23667;43.246;26.576;2022-10-16T03:02:13;100403.19;;;4.28;100.00
37824;BME280;23667;43.246;26.576;2022-10-16T03:04:39;100406.66;;;4.31;100.00
37824;BME280;23667;43.246;26.576;2022-10-16T03:07:04;100403.94;;;4.16;100.00
37824;BME280;23667;43.246;26.576;2022-10-16T03:09:29;100404.81;;;4.20;100.00
37824;BME280;23667;43.246;26.576;2022-10-16T03:11:55;100400.44;;;4.11;100.00
37824;BME280;23667;43.246;26.576;2022-10-16T03:14:20;100402.91;;;4.00;100.00
37824;BME280;23667;43.246;26.576;2022-10-16T03:16:46;100409.84;;;4.06;100.00
37824;BME280;23667;43.246;26.576;2022-10-16T03:19:11;100403.06;;;4.14;100.00
37824;BME280;23667;43.246;26.576;2022-10-16T03:21:36;100402.97;;;4.08;100.00
37824;BME280;23667;43.246;26.576;2022-10-16T03:24:02;100408.22;;;4.14;100.00
37824;BME280;23667;43.246;26.576;2022-10-16T03:26:27;100409.88;;;4.09;100.00
37824;BME280;23667;43.246;26.576;2022-10-16T03:28:52;100404.72;;;4.10;100.00
37824;BME280;23667;43.246;26.576;2022-10-16T03:31:18;100409.84;;;4.06;100.00
37824;BME280;23667;43.246;26.576;2022-10-16T03:33:43;100403.78;;;4.01;100.00
37824;BME280;23667;43.246;26.576;2022-10-16T03:36:08;100406.19;;;3.85;100.00
37824;BME280;23667;43.246;26.576;2022-10-16T03:38:34;100403.72;;;3.99;100.00
37824;BME280;23667;43.246;26.576;2022-10-16T03:40:59;100405.53;;;4.05;100.00
37824;BME280;23667;43.246;26.576;2022-10-16T03:43:24;100407.97;;;3.93;100.00
37824;BME280;23667;43.246;26.576;2022-10-16T03:45:51;100408.00;;;3.96;100.00
37824;BME280;23667;43.246;26.576;2022-10-16T03:48:17;100405.28;;;3.83;100.00
37824;BME280;23667;43.246;26.576;2022-10-16T03:50:42;100414.75;;;3.84;100.00
37824;BME280;23667;43.246;26.576;2022-10-16T03:53:07;100413.88;;;3.82;100.00
37824;BME280;23667;43.246;26.576;2022-10-16T03:55:33;100418.97;;;3.76;100.00
37824;BME280;23667;43.246;26.576;2022-10-16T03:57:58;100417.50;;;3.98;100.00
37824;BME280;23667;43.246;26.576;2022-10-16T04:00:23;100410.44;;;3.83;100.00
37824;BME280;23667;43.246;26.576;2022-10-16T04:02:49;100410.44;;;3.82;100.00
37824;BME280;23667;43.246;26.576;2022-10-16T04:05:14;100409.53;;;3.80;100.00
37824;BME280;23667;43.246;26.576;2022-10-16T04:07:39;100415.69;;;3.88;100.00
37824;BME280;23667;43.246;26.576;2022-10-16T04:10:05;100407.13;;;3.94;100.00
37824;BME280;23667;43.246;26.576;2022-10-16T04:12:30;100410.44;;;3.83;100.00
37824;BME280;23667;43.246;26.576;2022-10-16T04:14:56;100413.00;;;3.80;100.00
37824;BME280;23667;43.246;26.576;2022-10-16T04:17:21;100407.88;;;3.83;100.00
37824;BME280;23667;43.246;26.576;2022-10-16T04:19:46;100413.06;;;3.85;100.00
37824;BME280;23667;43.246;26.576;2022-10-16T04:22:12;100415.56;;;3.80;100.00
37824;BME280;23667;43.246;26.576;2022-10-16T04:24:37;100411.34;;;3.85;100.00
37824;BME280;23667;43.246;26.576;2022-10-16T04:27:02;100421.66;;;3.85;100.00
37824;BME280;23667;43.246;26.576;2022-10-16T04:29:28;100411.44;;;3.95;100.00
37824;BME280;23667;43.246;26.576;2022-10-16T04:31:53;100412.38;;;4.01;100.00
37824;BME280;23667;43.246;26.576;2022-10-16T04:34:18;100410.50;;;3.88;100.00
37824;BME280;23667;43.246;26.576;2022-10-16T04:36:46;100413.94;;;3.90;100.00
37824;BME280;23667;43.246;26.576;2022-10-16T04:39:11;100418.34;;;3.99;100.00
37824;BME280;23667;43.246;26.576;2022-10-16T04:41:36;100426.88;;;3.93;100.00
37824;BME280;23667;43.246;26.576;2022-10-16T04:44:02;100425.22;;;3.94;100.00
37824;BME280;23667;43.246;26.576;2022-10-16T04:46:27;100437.28;;;3.98;100.00
37824;BME280;23667;43.246;26.576;2022-10-16T04:48:52;100432.97;;;3.98;100.00
37824;BME280;23667;43.246;26.576;2022-10-16T04:51:18;100431.19;;;3.91;100.00
37824;BME280;23667;43.246;26.576;2022-10-16T04:53:44;100434.78;;;4.04;100.00
37824;BME280;23667;43.246;26.576;2022-10-16T04:56:09;100427.03;;;4.02;100.00
37824;BME280;23667;43.246;26.576;2022-10-16T04:58:34;100432.31;;;4.15;100.00
37824;BME280;23667;43.246;26.576;2022-10-16T05:01:00;100423.84;;;4.28;100.00
37824;BME280;23667;43.246;26.576;2022-10-16T05:03:25;100428.22;;;4.32;100.00
37824;BME280;23667;43.246;26.576;2022-10-16T05:05:50;100438.59;;;4.38;100.00
37824;BME280;23667;43.246;26.576;2022-10-16T05:08:16;100451.50;;;4.35;100.00
37824;BME280;23667;43.246;26.576;2022-10-16T05:10:42;100453.25;;;4.41;100.00
37824;BME280;23667;43.246;26.576;2022-10-16T05:13:07;100455.91;;;4.47;100.00
37824;BME280;23667;43.246;26.576;2022-10-16T05:15:33;100455.09;;;4.51;100.00
37824;BME280;23667;43.246;26.576;2022-10-16T05:17:58;100449.34;;;4.79;100.00
37824;BME280;23667;43.246;26.576;2022-10-16T05:20:24;100453.84;;;5.05;100.00
37824;BME280;23667;43.246;26.576;2022-10-16T05:22:49;100462.47;;;5.04;100.00
37824;BME280;23667;43.246;26.576;2022-10-16T05:25:15;100471.22;;;5.21;100.00
37824;BME280;23667;43.246;26.576;2022-10-16T05:27:40;100465.44;;;5.64;100.00
37824;BME280;23667;43.246;26.576;2022-10-16T05:30:06;100472.50;;;5.92;100.00
37824;BME280;23667;43.246;26.576;2022-10-16T05:32:31;100464.88;;;6.15;100.00
37824;BME280;23667;43.246;26.576;2022-10-16T05:34:56;100473.53;;;6.33;100.00
37824;BME280;23667;43.246;26.576;2022-10-16T05:37:24;100467.59;;;6.60;100.00
37824;BME280;23667;43.246;26.576;2022-10-16T05:39:49;100473.63;;;6.60;100.00
37824;BME280;23667;43.246;26.576;2022-10-16T05:42:14;100476.28;;;7.08;100.00
37824;BME280;23667;43.246;26.576;2022-10-16T05:44:40;100465.91;;;7.11;100.00
37824;BME280;23667;43.246;26.576;2022-10-16T05:47:05;100467.63;;;7.04;100.00
37824;BME280;23667;43.246;26.576;2022-10-16T05:49:30;100476.25;;;6.97;100.00
37824;BME280;23667;43.246;26.576;2022-10-16T05:51:56;100481.44;;;6.91;100.00
37824;BME280;23667;43.246;26.576;2022-10-16T05:54:21;100484.03;;;7.00;100.00
37824;BME280;23667;43.246;26.576;2022-10-16T05:56:46;100481.44;;;6.94;100.00
37824;BME280;23667;43.246;26.576;2022-10-16T05:59:12;100484.91;;;7.02;100.00
37824;BME280;23667;43.246;26.576;2022-10-16T06:01:37;100487.50;;;6.96;100.00
37824;BME280;23667;43.246;26.576;2022-10-16T06:04:02;100499.59;;;7.03;100.00
37824;BME280;23667;43.246;26.576;2022-10-16T06:06:28;100501.34;;;7.21;100.00
37824;BME280;23667;43.246;26.576;2022-10-16T06:08:55;100497.00;;;7.06;100.00
37824;BME280;23667;43.246;26.576;2022-10-16T06:11:25;100503.06;;;7.21;100.00
37824;BME280;23667;43.246;26.576;2022-10-16T06:13:51;100497.03;;;7.19;100.00
37824;BME280;23667;43.246;26.576;2022-10-16T06:16:17;100506.53;;;7.20;100.00
37824;BME280;23667;43.246;26.576;2022-10-16T06:18:43;100500.38;;;7.81;100.00
37824;BME280;23667;43.246;26.576;2022-10-16T06:21:09;100505.22;;;8.79;100.00
37824;BME280;23667;43.246;26.576;2022-10-16T06:23:35;100492.56;;;10.24;100.00
37824;BME280;23667;43.246;26.576;2022-10-16T06:26:04;100476.03;;;11.41;100.00
37824;BME280;23667;43.246;26.576;2022-10-16T06:28:29;100471.84;;;12.24;100.00
37824;BME280;23667;43.246;26.576;2022-10-16T06:31:01;100460.41;;;12.29;100.00
37824;BME280;23667;43.246;26.576;2022-10-16T06:33:26;100461.16;;;13.45;100.00
37824;BME280;23667;43.246;26.576;2022-10-16T06:35:51;100462.19;;;14.33;100.00
37824;BME280;23667;43.246;26.576;2022-10-16T06:38:17;100456.84;;;15.20;100.00
37824;BME280;23667;43.246;26.576;2022-10-16T06:40:42;100461.72;;;15.83;100.00
37824;BME280;23667;43.246;26.576;2022-10-16T06:43:07;100465.69;;;16.18;100.00
37824;BME280;23667;43.246;26.576;2022-10-16T06:45:33;100470.88;;;15.19;100.00
37824;BME280;23667;43.246;26.576;2022-10-16T06:47:58;100468.47;;;16.13;100.00
37824;BME280;23667;43.246;26.576;2022-10-16T06:50:23;100466.22;;;14.74;100.00
37824;BME280;23667;43.246;26.576;2022-10-16T06:52:49;100468.47;;;15.90;100.00
37824;BME280;23667;43.246;26.576;2022-10-16T06:55:14;100470.63;;;14.44;100.00
37824;BME280;23667;43.246;26.576;2022-10-16T06:57:40;100472.41;;;15.00;100.00
37824;BME280;23667;43.246;26.576;2022-10-16T07:00:05;100477.06;;;15.95;100.00
37824;BME280;23667;43.246;26.576;2022-10-16T07:02:31;100482.72;;;16.31;100.00
37824;BME280;23667;43.246;26.576;2022-10-16T07:04:56;100488.69;;;16.36;100.00
37824;BME280;23667;43.246;26.576;2022-10-16T07:07:22;100487.63;;;17.71;100.00
37824;BME280;23667;43.246;26.576;2022-10-16T07:09:49;100493.84;;;17.90;100.00
37824;BME280;23667;43.246;26.576;2022-10-16T07:12:15;100497.25;;;17.09;100.00
37824;BME280;23667;43.246;26.576;2022-10-16T07:14:40;100489.84;;;17.60;100.00
37824;BME280;23667;43.246;26.576;2022-10-16T07:17:05;100501.41;;;18.37;98.23
37824;BME280;23667;43.246;26.576;2022-10-16T07:19:31;100502.28;;;18.76;86.34
37824;BME280;23667;43.246;26.576;2022-10-16T07:21:56;100503.31;;;17.11;89.49
37824;BME280;23667;43.246;26.576;2022-10-16T07:24:22;100506.34;;;18.06;86.26
37824;BME280;23667;43.246;26.576;2022-10-16T07:26:47;100503.19;;;16.00;95.64
37824;BME280;23667;43.246;26.576;2022-10-16T07:29:17;100499.63;;;14.69;100.00
37824;BME280;23667;43.246;26.576;2022-10-16T07:31:42;100496.03;;;16.50;100.00
37824;BME280;23667;43.246;26.576;2022-10-16T07:34:08;100504.66;;;17.21;90.29
37824;BME280;23667;43.246;26.576;2022-10-16T07:36:33;100495.09;;;17.82;83.78
37824;BME280;23667;43.246;26.576;2022-10-16T07:38:59;100502.84;;;17.44;81.19
37824;BME280;23667;43.246;26.576;2022-10-16T07:41:24;100500.38;;;16.75;83.05
37824;BME280;23667;43.246;26.576;2022-10-16T07:43:50;100492.13;;;17.69;82.17
37824;BME280;23667;43.246;26.576;2022-10-16T07:46:17;100496.47;;;19.75;74.45
37824;BME280;23667;43.246;26.576;2022-10-16T07:48:42;100499.78;;;20.62;66.12
37824;BME280;23667;43.246;26.576;2022-10-16T07:51:11;100505.38;;;21.50;64.39
37824;BME280;23667;43.246;26.576;2022-10-16T07:53:37;100496.63;;;21.78;57.97
37824;BME280;23667;43.246;26.576;2022-10-16T07:56:03;100504.41;;;19.92;61.54
37824;BME280;23667;43.246;26.576;2022-10-16T07:58:29;100497.22;;;20.43;60.77
37824;BME280;23667;43.246;26.576;2022-10-16T08:00:55;100497.88;;;19.99;61.17
37824;BME280;23667;43.246;26.576;2022-10-16T08:03:20;100493.53;;;20.14;61.56
37824;BME280;23667;43.246;26.576;2022-10-16T08:05:45;100494.94;;;19.71;58.61
37824;BME280;23667;43.246;26.576;2022-10-16T08:08:12;100496.81;;;19.69;59.69
37824;BME280;23667;43.246;26.576;2022-10-16T08:10:38;100499.41;;;17.84;61.70
37824;BME280;23667;43.246;26.576;2022-10-16T08:13:03;100508.66;;;17.52;64.96
37824;BME280;23667;43.246;26.576;2022-10-16T08:15:28;100503.31;;;18.15;65.31
37824;BME280;23667;43.246;26.576;2022-10-16T08:17:55;100499.53;;;18.39;64.12
37824;BME280;23667;43.246;26.576;2022-10-16T08:20:21;100508.81;;;18.67;62.50
37824;BME280;23667;43.246;26.576;2022-10-16T08:22:46;100507.75;;;19.26;62.69
37824;BME280;23667;43.246;26.576;2022-10-16T08:25:11;100504.16;;;21.55;58.22
37824;BME280;23667;43.246;26.576;2022-10-16T08:27:36;100508.00;;;20.25;56.03
37824;BME280;23667;43.246;26.576;2022-10-16T08:30:02;100499.66;;;18.36;62.59
37824;BME280;23667;43.246;26.576;2022-10-16T08:32:27;100500.44;;;20.50;57.78
37824;BME280;23667;43.246;26.576;2022-10-16T08:34:52;100496.34;;;20.60;57.07
37824;BME280;23667;43.246;26.576;2022-10-16T08:37:18;100497.25;;;21.07;55.17
37824;BME280;23667;43.246;26.576;2022-10-16T08:39:43;100492.59;;;20.15;55.92
37824;BME280;23667;43.246;26.576;2022-10-16T08:47:35;100495.53;;;20.27;53.77
37824;BME280;23667;43.246;26.576;2022-10-16T08:50:09;100502.94;;;18.98;55.60
37824;BME280;23667;43.246;26.576;2022-10-16T08:52:35;100487.34;;;19.46;54.90
37824;BME280;23667;43.246;26.576;2022-10-16T08:55:03;100481.78;;;20.36;53.39
37824;BME280;23667;43.246;26.576;2022-10-16T08:57:29;100486.69;;;19.77;53.91
37824;BME280;23667;43.246;26.576;2022-10-16T08:59:57;100487.66;;;19.57;54.05
37824;BME280;23667;43.246;26.576;2022-10-16T09:10:57;100485.13;;;21.33;48.04
37824;BME280;23667;43.246;26.576;2022-10-16T09:15:50;100490.31;;;19.40;51.06
37824;BME280;23667;43.246;26.576;2022-10-16T09:18:24;100493.00;;;20.08;50.69
37824;BME280;23667;43.246;26.576;2022-10-16T09:20:53;100502.03;;;18.80;51.73
37824;BME280;23667;43.246;26.576;2022-10-16T09:23:25;100495.25;;;20.15;51.16
37824;BME280;23667;43.246;26.576;2022-10-16T09:25:52;100496.25;;;20.78;48.67
37824;BME280;23667;43.246;26.576;2022-10-16T09:28:18;100497.75;;;21.13;48.49
37824;BME280;23667;43.246;26.576;2022-10-16T09:30:43;100498.75;;;20.81;49.66
37824;BME280;23667;43.246;26.576;2022-10-16T09:33:10;100488.44;;;19.94;50.38
37824;BME280;23667;43.246;26.576;2022-10-16T09:35:40;100490.28;;;20.25;49.60
37824;BME280;23667;43.246;26.576;2022-10-16T09:38:05;100488.78;;;18.82;51.23
37824;BME280;23667;43.246;26.576;2022-10-16T09:40:32;100495.91;;;18.23;53.10
37824;BME280;23667;43.246;26.576;2022-10-16T09:45:33;100482.91;;;18.94;50.35
37824;BME280;23667;43.246;26.576;2022-10-16T09:48:00;100479.72;;;19.57;50.24
37824;BME280;23667;43.246;26.576;2022-10-16T09:50:27;100482.88;;;19.83;49.39
37824;BME280;23667;43.246;26.576;2022-10-16T09:53:12;100482.13;;;19.09;49.90
37824;BME280;23667;43.246;26.576;2022-10-16T09:55:51;100487.59;;;17.93;51.86
37824;BME280;23667;43.246;26.576;2022-10-16T09:58:17;100490.78;;;19.30;49.73
37824;BME280;23667;43.246;26.576;2022-10-16T10:00:48;100475.97;;;18.92;51.00
37824;BME280;23667;43.246;26.576;2022-10-16T10:06:17;100487.16;;;19.68;47.27
37824;BME280;23667;43.246;26.576;2022-10-16T10:08:53;100480.50;;;19.94;46.07
37824;BME280;23667;43.246;26.576;2022-10-16T10:11:35;100466.72;;;19.87;49.91
37824;BME280;23667;43.246;26.576;2022-10-16T10:16:45;100469.22;;;18.29;52.80
37824;BME280;23667;43.246;26.576;2022-10-16T10:19:17;100481.03;;;16.98;55.41
37824;BME280;23667;43.246;26.576;2022-10-16T10:21:42;100476.50;;;16.10;56.71
37824;BME280;23667;43.246;26.576;2022-10-16T10:24:10;100475.38;;;15.67;57.60
37824;BME280;23667;43.246;26.576;2022-10-16T10:26:35;100464.25;;;15.34;61.08
37824;BME280;23667;43.246;26.576;2022-10-16T10:30:02;100455.50;;;15.34;63.67
37824;BME280;23667;43.246;26.576;2022-10-16T10:32:05;100462.13;;;15.45;63.93
37824;BME280;23667;43.246;26.576;2022-10-16T10:37:30;100464.97;;;15.13;64.35
37824;BME280;23667;43.246;26.576;2022-10-16T10:40:13;100452.88;;;15.09;64.37
37824;BME280;23667;43.246;26.576;2022-10-16T10:42:57;100460.13;;;15.27;66.22
37824;BME280;23667;43.246;26.576;2022-10-16T10:45:26;100452.28;;;15.25;67.12
37824;BME280;23667;43.246;26.576;2022-10-16T10:53:10;100447.06;;;15.51;67.68
37824;BME280;23667;43.246;26.576;2022-10-16T10:55:43;100430.16;;;15.33;67.93
37824;BME280;23667;43.246;26.576;2022-10-16T11:03:42;100438.56;;;15.42;67.37
37824;BME280;23667;43.246;26.576;2022-10-16T11:06:12;100432.34;;;15.45;67.91
37824;BME280;23667;43.246;26.576;2022-10-16T11:08:45;100436.47;;;15.52;68.61
37824;BME280;23667;43.246;26.576;2022-10-16T11:11:20;100433.06;;;15.50;68.77
37824;BME280;23667;43.246;26.576;2022-10-16T11:16:25;100435.72;;;15.48;66.98
37824;BME280;23667;43.246;26.576;2022-10-16T11:21:37;100442.41;;;15.59;67.53
37824;BME280;23667;43.246;26.576;2022-10-16T11:24:15;100447.44;;;15.65;66.82
37824;BME280;23667;43.246;26.576;2022-10-16T11:26:44;100444.72;;;15.68;66.51
37824;BME280;23667;43.246;26.576;2022-10-16T11:29:19;100440.06;;;15.50;65.07
37824;BME280;23667;43.246;26.576;2022-10-16T11:31:48;100435.09;;;15.42;66.66
37824;BME280;23667;43.246;26.576;2022-10-16T11:39:22;100438.47;;;15.45;65.12
37824;BME280;23667;43.246;26.576;2022-10-16T11:44:32;100446.63;;;15.63;66.81
37824;BME280;23667;43.246;26.576;2022-10-16T11:49:33;100441.22;;;15.67;67.27
37824;BME280;23667;43.246;26.576;2022-10-16T11:54:43;100449.91;;;15.69;67.50
37824;BME280;23667;43.246;26.576;2022-10-16T11:59:58;100444.63;;;15.71;66.07
37824;BME280;23667;43.246;26.576;2022-10-16T12:02:34;100445.28;;;15.76;66.08
37824;BME280;23667;43.246;26.576;2022-10-16T12:05:06;100454.72;;;15.82;64.74
37824;BME280;23667;43.246;26.576;2022-10-16T12:07:38;100454.09;;;15.75;63.97
37824;BME280;23667;43.246;26.576;2022-10-16T12:10:22;100452.22;;;15.79;63.54
37824;BME280;23667;43.246;26.576;2022-10-16T12:12:47;100451.81;;;15.64;63.89
37824;BME280;23667;43.246;26.576;2022-10-16T12:17:44;100453.03;;;15.81;62.19
37824;BME280;23667;43.246;26.576;2022-10-16T12:22:47;100453.66;;;15.62;64.05
37824;BME280;23667;43.246;26.576;2022-10-16T12:27:56;100458.72;;;15.67;63.83
37824;BME280;23667;43.246;26.576;2022-10-16T12:30:23;100455.13;;;15.71;64.32
37824;BME280;23667;43.246;26.576;2022-10-16T12:32:53;100458.22;;;15.82;65.18
37824;BME280;23667;43.246;26.576;2022-10-16T12:35:26;100451.25;;;15.81;65.65
37824;BME280;23667;43.246;26.576;2022-10-16T12:37:52;100450.69;;;15.97;63.32
37824;BME280;23667;43.246;26.576;2022-10-16T12:42:46;100457.47;;;15.79;61.82
37824;BME280;23667;43.246;26.576;2022-10-16T12:45:25;100461.88;;;15.78;62.30
37824;BME280;23667;43.246;26.576;2022-10-16T12:47:52;100463.19;;;15.90;61.42
37824;BME280;23667;43.246;26.576;2022-10-16T12:52:49;100449.44;;;15.83;61.52
37824;BME280;23667;43.246;26.576;2022-10-16T12:55:16;100456.50;;;15.81;61.92
37824;BME280;23667;43.246;26.576;2022-10-16T13:00:32;100455.44;;;15.87;61.63
37824;BME280;23667;43.246;26.576;2022-10-16T13:14:08;100461.38;;;15.92;60.86
37824;BME280;23667;43.246;26.576;2022-10-16T13:19:09;100470.72;;;16.01;59.08
37824;BME280;23667;43.246;26.576;2022-10-16T13:29:04;100482.66;;;15.86;60.17
37824;BME280;23667;43.246;26.576;2022-10-16T13:31:30;100481.69;;;15.88;59.54
37824;BME280;23667;43.246;26.576;2022-10-16T13:33:57;100475.72;;;15.83;58.47
37824;BME280;23667;43.246;26.576;2022-10-16T13:36:30;100482.88;;;15.80;58.21
37824;BME280;23667;43.246;26.576;2022-10-16T13:39:00;100479.09;;;15.87;58.59
37824;BME280;23667;43.246;26.576;2022-10-16T13:41:25;100484.59;;;15.81;57.81
37824;BME280;23667;43.246;26.576;2022-10-16T13:43:51;100471.09;;;15.90;58.62
37824;BME280;23667;43.246;26.576;2022-10-16T13:46:18;100475.72;;;15.83;57.92
37824;BME280;23667;43.246;26.576;2022-10-16T13:48:44;100479.53;;;15.75;59.04
37824;BME280;23667;43.246;26.576;2022-10-16T13:51:14;100473.06;;;15.58;59.70
37824;BME280;23667;43.246;26.576;2022-10-16T13:53:39;100475.88;;;15.54;59.66
37824;BME280;23667;43.246;26.576;2022-10-16T13:56:07;100479.19;;;15.59;59.24
37824;BME280;23667;43.246;26.576;2022-10-16T13:58:33;100477.47;;;15.58;59.93
37824;BME280;23667;43.246;26.576;2022-10-16T14:01:00;100493.31;;;15.56;59.37
37824;BME280;23667;43.246;26.576;2022-10-16T14:03:36;100491.53;;;15.57;59.08
37824;BME280;23667;43.246;26.576;2022-10-16T14:06:02;100490.50;;;15.61;58.36
37824;BME280;23667;43.246;26.576;2022-10-16T14:08:29;100495.88;;;15.58;59.45
37824;BME280;23667;43.246;26.576;2022-10-16T14:10:56;100491.56;;;15.55;58.98
37824;BME280;23667;43.246;26.576;2022-10-16T14:13:31;100494.97;;;15.59;57.85
37824;BME280;23667;43.246;26.576;2022-10-16T14:15:59;100490.81;;;15.52;57.54
37824;BME280;23667;43.246;26.576;2022-10-16T14:18:27;100498.00;;;15.46;57.38
37824;BME280;23667;43.246;26.576;2022-10-16T14:20:52;100492.81;;;15.45;57.40
37824;BME280;23667;43.246;26.576;2022-10-16T14:23:22;100495.38;;;15.46;56.81
37824;BME280;23667;43.246;26.576;2022-10-16T14:25:48;100491.25;;;15.39;57.00
37824;BME280;23667;43.246;26.576;2022-10-16T14:30:53;100497.34;;;15.13;58.20